sensor_id;sensor_type;location;lat;lon;timestamp;pressure;altitude;pressure_sealevel;temperature;humidity
71145;BME280;58812;47.698;17.726;2023-02-22T00:00:50;100330.84;;;4.99;100.00
71145;BME280;58812;47.698;17.726;2023-02-22T00:03:25;100324.19;;;4.93;100.00
71145;BME280;58812;47.698;17.726;2023-02-22T00:05:56;100329.88;;;5.00;100.00
71145;BME280;58812;47.698;17.726;2023-02-22T00:08:25;100321.59;;;5.04;100.00
71145;BME280;58812;47.698;17.726;2023-02-22T00:10:55;100323.31;;;5.05;100.00
71145;BME280;58812;47.698;17.726;2023-02-22T00:13:20;100315.09;;;5.08;100.00
71145;BME280;58812;47.698;17.726;2023-02-22T00:15:49;100318.75;;;4.95;100.00
71145;BME280;58812;47.698;17.726;2023-02-22T00:18:16;100322.50;;;4.92;100.00
71145;BME280;58812;47.698;17.726;2023-02-22T00:20:42;100313.44;;;4.95;100.00
71145;BME280;58812;47.698;17.726;2023-02-22T00:23:13;100313.78;;;4.90;100.00
71145;BME280;58812;47.698;17.726;2023-02-22T00:25:39;100315.16;;;4.83;100.00
71145;BME280;58812;47.698;17.726;2023-02-22T00:28:04;100322.41;;;4.81;100.00
71145;BME280;58812;47.698;17.726;2023-02-22T00:30:31;100323.75;;;4.74;100.00
71145;BME280;58812;47.698;17.726;2023-02-22T00:32:58;100318.69;;;4.71;100.00
71145;BME280;58812;47.698;17.726;2023-02-22T00:35:26;100329.00;;;4.63;100.00
71145;BME280;58812;47.698;17.726;2023-02-22T00:37:54;100320.72;;;4.54;100.00
71145;BME280;58812;47.698;17.726;2023-02-22T00:40:23;100312.97;;;4.51;100.00
71145;BME280;58812;47.698;17.726;2023-02-22T00:42:49;100323.06;;;4.46;100.00
71145;BME280;58812;47.698;17.726;2023-02-22T00:45:17;100318.06;;;4.42;100.00
71145;BME280;58812;47.698;17.726;2023-02-22T00:47:42;100324.87;;;4.33;100.00
71145;BME280;58812;47.698;17.726;2023-02-22T00:50:08;100318.91;;;4.29;100.00
71145;BME280;58812;47.698;17.726;2023-02-22T00:52:35;100323.38;;;4.29;100.00
71145;BME280;58812;47.698;17.726;2023-02-22T00:55:02;100326.44;;;4.23;100.00
71145;BME280;58812;47.698;17.726;2023-02-22T00:57:27;100330.97;;;4.21;100.00
71145;BME280;58812;47.698;17.726;2023-02-22T00:59:53;100321.87;;;4.25;100.00
71145;BME280;58812;47.698;17.726;2023-02-22T01:02:18;100326.09;;;4.15;100.00
71145;BME280;58812;47.698;17.726;2023-02-22T01:04:44;100326.19;;;4.13;100.00
71145;BME280;58812;47.698;17.726;2023-02-22T01:07:09;100320.91;;;4.13;100.00
71145;BME280;58812;47.698;17.726;2023-02-22T01:09:35;100318.91;;;4.17;100.00
71145;BME280;58812;47.698;17.726;2023-02-22T01:12:00;100317.53;;;4.24;100.00
71145;BME280;58812;47.698;17.726;2023-02-22T01:14:27;100313.72;;;4.28;100.00
71145;BME280;58812;47.698;17.726;2023-02-22T01:16:53;100319.56;;;4.33;100.00
71145;BME280;58812;47.698;17.726;2023-02-22T01:19:21;100319.56;;;4.33;100.00
71145;BME280;58812;47.698;17.726;2023-02-22T01:21:47;100320.19;;;4.37;100.00
71145;BME280;58812;47.698;17.726;2023-02-22T01:24:14;100306.72;;;4.27;100.00
71145;BME280;58812;47.698;17.726;2023-02-22T01:26:41;100317.41;;;4.25;100.00
71145;BME280;58812;47.698;17.726;2023-02-22T01:29:11;100311.50;;;4.22;100.00
71145;BME280;58812;47.698;17.726;2023-02-22T01:31:40;100311.91;;;4.16;100.00
71145;BME280;58812;47.698;17.726;2023-02-22T01:34:05;100318.13;;;4.15;100.00
71145;BME280;58812;47.698;17.726;2023-02-22T01:36:30;100309.47;;;4.13;100.00
71145;BME280;58812;47.698;17.726;2023-02-22T01:38:56;100309.56;;;3.98;100.00
71145;BME280;58812;47.698;17.726;2023-02-22T01:41:21;100298.00;;;3.87;100.00
71145;BME280;58812;47.698;17.726;2023-02-22T01:43:47;100304.44;;;3.83;100.00
71145;BME280;58812;47.698;17.726;2023-02-22T01:46:24;100300.19;;;3.80;100.00
71145;BME280;58812;47.698;17.726;2023-02-22T01:48:54;100307.38;;;3.78;100.00
71145;BME280;58812;47.698;17.726;2023-02-22T01:51:24;100295.94;;;3.78;100.00
71145;BME280;58812;47.698;17.726;2023-02-22T01:54:22;100301.25;;;3.78;100.00
71145;BME280;58812;47.698;17.726;2023-02-22T01:56:53;100306.53;;;3.78;100.00
71145;BME280;58812;47.698;17.726;2023-02-22T01:59:22;100295.84;;;3.79;100.00
71145;BME280;58812;47.698;17.726;2023-02-22T02:01:48;100294.06;;;3.80;100.00
71145;BME280;58812;47.698;17.726;2023-02-22T02:04:18;100302.22;;;3.89;100.00
71145;BME280;58812;47.698;17.726;2023-02-22T02:06:45;100303.91;;;3.90;100.00
71145;BME280;58812;47.698;17.726;2023-02-22T02:11:37;100296.91;;;3.89;100.00
71145;BME280;58812;47.698;17.726;2023-02-22T02:14:05;100296.50;;;3.95;100.00
71145;BME280;58812;47.698;17.726;2023-02-22T02:16:50;100294.09;;;3.92;100.00
71145;BME280;58812;47.698;17.726;2023-02-22T02:19:39;100297.03;;;3.88;100.00
71145;BME280;58812;47.698;17.726;2023-02-22T02:30:42;100282.38;;;3.69;100.00
71145;BME280;58812;47.698;17.726;2023-02-22T02:35:59;100288.19;;;3.62;100.00
71145;BME280;58812;47.698;17.726;2023-02-22T02:38:43;100280.31;;;3.60;100.00
71145;BME280;58812;47.698;17.726;2023-02-22T02:41:15;100282.44;;;3.55;100.00
71145;BME280;58812;47.698;17.726;2023-02-22T02:44:32;100282.53;;;3.54;100.00
71145;BME280;58812;47.698;17.726;2023-02-22T02:49:30;100282.13;;;3.60;100.00
71145;BME280;58812;47.698;17.726;2023-02-22T02:51:58;100289.88;;;3.63;100.00
71145;BME280;58812;47.698;17.726;2023-02-22T02:54:24;100290.63;;;3.65;100.00
71145;BME280;58812;47.698;17.726;2023-02-22T02:56:50;100284.25;;;3.67;100.00
71145;BME280;58812;47.698;17.726;2023-02-22T02:59:34;100290.44;;;3.68;100.00
71145;BME280;58812;47.698;17.726;2023-02-22T03:11:19;100294.78;;;3.42;100.00
71145;BME280;58812;47.698;17.726;2023-02-22T03:17:04;100296.66;;;3.13;100.00
71145;BME280;58812;47.698;17.726;2023-02-22T03:19:36;100302.41;;;3.19;100.00
71145;BME280;58812;47.698;17.726;2023-02-22T03:22:27;100301.16;;;3.25;100.00
71145;BME280;58812;47.698;17.726;2023-02-22T03:25:14;100294.72;;;3.29;100.00
71145;BME280;58812;47.698;17.726;2023-02-22T03:27:46;100291.91;;;3.32;100.00
71145;BME280;58812;47.698;17.726;2023-02-22T03:30:20;100294.22;;;3.37;100.00
71145;BME280;58812;47.698;17.726;2023-02-22T03:32:55;100284.59;;;3.36;100.00
71145;BME280;58812;47.698;17.726;2023-02-22T03:35:24;100296.03;;;3.36;100.00
71145;BME280;58812;47.698;17.726;2023-02-22T03:37:57;100287.91;;;3.39;100.00
71145;BME280;58812;47.698;17.726;2023-02-22T03:40:32;100283.75;;;3.35;100.00
71145;BME280;58812;47.698;17.726;2023-02-22T03:43:06;100296.31;;;3.32;100.00
71145;BME280;58812;47.698;17.726;2023-02-22T03:45:33;100294.41;;;3.21;100.00
71145;BME280;58812;47.698;17.726;2023-02-22T03:50:53;100300.59;;;3.20;100.00
71145;BME280;58812;47.698;17.726;2023-02-22T03:53:19;100305.37;;;3.15;100.00
71145;BME280;58812;47.698;17.726;2023-02-22T03:55:48;100309.16;;;3.11;100.00
71145;BME280;58812;47.698;17.726;2023-02-22T03:58:17;100311.78;;;3.11;100.00
71145;BME280;58812;47.698;17.726;2023-02-22T04:00:45;100306.09;;;3.17;100.00
71145;BME280;58812;47.698;17.726;2023-02-22T04:03:11;100305.25;;;3.16;100.00
71145;BME280;58812;47.698;17.726;2023-02-22T04:05:37;100310.44;;;3.18;100.00
71145;BME280;58812;47.698;17.726;2023-02-22T04:08:02;100318.37;;;3.18;100.00
71145;BME280;58812;47.698;17.726;2023-02-22T04:10:28;100306.09;;;3.17;100.00
71145;BME280;58812;47.698;17.726;2023-02-22T04:12:53;100311.97;;;3.22;100.00
71145;BME280;58812;47.698;17.726;2023-02-22T04:15:21;100322.31;;;3.25;100.00
71145;BME280;58812;47.698;17.726;2023-02-22T04:17:47;100322.88;;;3.30;100.00
71145;BME280;58812;47.698;17.726;2023-02-22T04:20:13;100325.25;;;3.35;100.00
71145;BME280;58812;47.698;17.726;2023-02-22T04:22:39;100324.84;;;3.41;100.00
71145;BME280;58812;47.698;17.726;2023-02-22T04:25:05;100325.09;;;3.51;100.00
71145;BME280;58812;47.698;17.726;2023-02-22T04:27:31;100329.59;;;3.63;100.00
71145;BME280;58812;47.698;17.726;2023-02-22T04:29:56;100328.41;;;3.67;100.00
71145;BME280;58812;47.698;17.726;2023-02-22T04:32:21;100323.25;;;3.78;100.00
71145;BME280;58812;47.698;17.726;2023-02-22T04:34:47;100324.34;;;3.75;100.00
71145;BME280;58812;47.698;17.726;2023-02-22T04:37:12;100329.19;;;3.69;100.00
71145;BME280;58812;47.698;17.726;2023-02-22T04:39:38;100323.91;;;3.69;100.00
71145;BME280;58812;47.698;17.726;2023-02-22T04:42:03;100323.69;;;3.72;100.00
71145;BME280;58812;47.698;17.726;2023-02-22T04:44:29;100323.38;;;3.77;100.00
71145;BME280;58812;47.698;17.726;2023-02-22T04:46:55;100319.66;;;3.79;100.00
71145;BME280;58812;47.698;17.726;2023-02-22T04:49:22;100318.81;;;3.79;100.00
71145;BME280;58812;47.698;17.726;2023-02-22T04:51:47;100326.03;;;3.77;100.00
71145;BME280;58812;47.698;17.726;2023-02-22T04:54:13;100313.75;;;3.75;100.00
71145;BME280;58812;47.698;17.726;2023-02-22T04:56:38;100314.03;;;3.71;100.00
71145;BME280;58812;47.698;17.726;2023-02-22T04:59:04;100316.69;;;3.71;100.00
71145;BME280;58812;47.698;17.726;2023-02-22T05:01:33;100317.53;;;3.71;100.00
71145;BME280;58812;47.698;17.726;2023-02-22T05:04:04;100318.59;;;3.69;100.00
71145;BME280;58812;47.698;17.726;2023-02-22T05:06:29;100319.63;;;3.66;100.00
71145;BME280;58812;47.698;17.726;2023-02-22T05:08:55;100320.59;;;3.65;100.00
71145;BME280;58812;47.698;17.726;2023-02-22T05:11:21;100325.03;;;3.65;100.00
71145;BME280;58812;47.698;17.726;2023-02-22T05:13:46;100321.94;;;3.58;100.00
71145;BME280;58812;47.698;17.726;2023-02-22T05:16:12;100326.41;;;3.58;100.00
71145;BME280;58812;47.698;17.726;2023-02-22T05:18:38;100327.75;;;3.51;100.00
71145;BME280;58812;47.698;17.726;2023-02-22T05:21:03;100328.78;;;3.48;100.00
71145;BME280;58812;47.698;17.726;2023-02-22T05:23:29;100323.59;;;3.46;100.00
71145;BME280;58812;47.698;17.726;2023-02-22T05:25:54;100326.25;;;3.46;100.00
71145;BME280;58812;47.698;17.726;2023-02-22T05:28:19;100326.44;;;3.43;100.00
71145;BME280;58812;47.698;17.726;2023-02-22T05:30:45;100324.72;;;3.42;100.00
71145;BME280;58812;47.698;17.726;2023-02-22T05:33:10;100329.72;;;3.47;100.00
71145;BME280;58812;47.698;17.726;2023-02-22T05:35:37;100327.09;;;3.47;100.00
71145;BME280;58812;47.698;17.726;2023-02-22T05:38:03;100328.87;;;3.46;100.00
71145;BME280;58812;47.698;17.726;2023-02-22T05:40:29;100333.34;;;3.46;100.00
71145;BME280;58812;47.698;17.726;2023-02-22T05:42:57;100336.63;;;3.49;100.00
71145;BME280;58812;47.698;17.726;2023-02-22T05:45:25;100329.03;;;3.58;100.00
71145;BME280;58812;47.698;17.726;2023-02-22T05:47:52;100336.59;;;3.64;100.00
71145;BME280;58812;47.698;17.726;2023-02-22T05:50:19;100335.34;;;3.69;100.00
71145;BME280;58812;47.698;17.726;2023-02-22T05:52:46;100341.19;;;3.74;100.00
71145;BME280;58812;47.698;17.726;2023-02-22T05:55:14;100344.84;;;3.72;100.00
71145;BME280;58812;47.698;17.726;2023-02-22T05:57:40;100346.53;;;3.73;100.00
71145;BME280;58812;47.698;17.726;2023-02-22T06:00:06;100348.09;;;3.90;100.00
71145;BME280;58812;47.698;17.726;2023-02-22T06:02:32;100350.09;;;3.86;100.00
71145;BME280;58812;47.698;17.726;2023-02-22T06:04:59;100350.66;;;3.91;100.00
71145;BME280;58812;47.698;17.726;2023-02-22T06:07:24;100360.72;;;3.99;100.00
71145;BME280;58812;47.698;17.726;2023-02-22T06:09:51;100358.50;;;4.06;100.00
71145;BME280;58812;47.698;17.726;2023-02-22T06:12:17;100361.50;;;4.14;100.00
71145;BME280;58812;47.698;17.726;2023-02-22T06:14:43;100356.16;;;4.01;100.00
71145;BME280;58812;47.698;17.726;2023-02-22T06:17:12;100358.72;;;4.02;100.00
71145;BME280;58812;47.698;17.726;2023-02-22T06:19:38;100360.94;;;4.09;100.00
71145;BME280;58812;47.698;17.726;2023-02-22T06:22:05;100363.00;;;4.18;100.00
71145;BME280;58812;47.698;17.726;2023-02-22T06:24:31;100373.19;;;4.37;100.00
71145;BME280;58812;47.698;17.726;2023-02-22T06:26:59;100373.41;;;4.46;100.00
71145;BME280;58812;47.698;17.726;2023-02-22T06:29:27;100379.44;;;4.48;100.00
71145;BME280;58812;47.698;17.726;2023-02-22T06:31:52;100358.13;;;4.37;100.00
71145;BME280;58812;47.698;17.726;2023-02-22T06:34:18;100358.97;;;4.38;100.00
71145;BME280;58812;47.698;17.726;2023-02-22T06:36:44;100358.66;;;4.55;100.00
71145;BME280;58812;47.698;17.726;2023-02-22T06:39:12;100352.84;;;4.63;100.00
71145;BME280;58812;47.698;17.726;2023-02-22T06:41:39;100345.41;;;4.68;100.00
71145;BME280;58812;47.698;17.726;2023-02-22T06:44:05;100344.25;;;4.72;100.00
71145;BME280;58812;47.698;17.726;2023-02-22T06:46:30;100339.75;;;4.85;100.00
71145;BME280;58812;47.698;17.726;2023-02-22T06:48:56;100343.47;;;4.95;100.00
71145;BME280;58812;47.698;17.726;2023-02-22T06:51:26;100344.72;;;5.02;100.00
71145;BME280;58812;47.698;17.726;2023-02-22T06:53:52;100344.50;;;5.18;100.00
71145;BME280;58812;47.698;17.726;2023-02-22T06:56:18;100343.66;;;5.18;100.00
71145;BME280;58812;47.698;17.726;2023-02-22T06:58:43;100345.13;;;5.09;100.00
71145;BME280;58812;47.698;17.726;2023-02-22T07:01:09;100354.44;;;5.27;100.00
71145;BME280;58812;47.698;17.726;2023-02-22T07:03:35;100358.25;;;5.36;100.00
71145;BME280;58812;47.698;17.726;2023-02-22T07:06:01;100363.88;;;5.31;100.00
71145;BME280;58812;47.698;17.726;2023-02-22T07:08:27;100371.25;;;5.02;100.00
71145;BME280;58812;47.698;17.726;2023-02-22T07:10:53;100372.78;;;4.81;100.00
71145;BME280;58812;47.698;17.726;2023-02-22T07:13:18;100385.72;;;4.98;100.00
71145;BME280;58812;47.698;17.726;2023-02-22T07:15:44;100386.94;;;5.18;100.00
71145;BME280;58812;47.698;17.726;2023-02-22T07:18:09;100387.44;;;5.36;100.00
71145;BME280;58812;47.698;17.726;2023-02-22T07:20:36;100387.72;;;5.44;100.00
71145;BME280;58812;47.698;17.726;2023-02-22T07:23:02;100391.09;;;5.59;100.00
71145;BME280;58812;47.698;17.726;2023-02-22T07:25:28;100389.56;;;5.68;100.00
71145;BME280;58812;47.698;17.726;2023-02-22T07:27:53;100394.81;;;5.80;100.00
71145;BME280;58812;47.698;17.726;2023-02-22T07:30:27;100392.34;;;5.90;100.00
71145;BME280;58812;47.698;17.726;2023-02-22T07:32:58;100394.69;;;5.95;100.00
71145;BME280;58812;47.698;17.726;2023-02-22T07:35:31;100406.56;;;6.02;100.00
71145;BME280;58812;47.698;17.726;2023-02-22T07:37:57;100405.38;;;6.06;100.00
71145;BME280;58812;47.698;17.726;2023-02-22T07:40:23;100405.19;;;5.96;100.00
71145;BME280;58812;47.698;17.726;2023-02-22T07:43:01;100401.81;;;5.94;100.00
71145;BME280;58812;47.698;17.726;2023-02-22T07:45:35;100403.25;;;5.98;100.00
71145;BME280;58812;47.698;17.726;2023-02-22T07:48:03;100407.53;;;6.01;100.00
71145;BME280;58812;47.698;17.726;2023-02-22T07:50:30;100405.75;;;6.12;100.00
71145;BME280;58812;47.698;17.726;2023-02-22T07:52:58;100410.00;;;6.15;100.00
71145;BME280;58812;47.698;17.726;2023-02-22T07:55:27;100413.78;;;6.24;100.00
71145;BME280;58812;47.698;17.726;2023-02-22T07:57:55;100410.03;;;6.26;100.00
71145;BME280;58812;47.698;17.726;2023-02-22T08:00:27;100408.22;;;6.27;100.00
71145;BME280;58812;47.698;17.726;2023-02-22T08:02:53;100402.78;;;6.28;100.00
71145;BME280;58812;47.698;17.726;2023-02-22T08:05:21;100411.56;;;6.41;100.00
71145;BME280;58812;47.698;17.726;2023-02-22T08:07:47;100409.16;;;6.50;100.00
71145;BME280;58812;47.698;17.726;2023-02-22T08:10:14;100412.69;;;6.61;100.00
71145;BME280;58812;47.698;17.726;2023-02-22T08:12:41;100411.25;;;6.68;100.00
71145;BME280;58812;47.698;17.726;2023-02-22T08:15:08;100417.06;;;6.74;100.00
71145;BME280;58812;47.698;17.726;2023-02-22T08:17:39;100412.34;;;6.77;100.00
71145;BME280;58812;47.698;17.726;2023-02-22T08:20:05;100420.09;;;6.91;100.00
71145;BME280;58812;47.698;17.726;2023-02-22T08:22:30;100416.63;;;7.02;100.00
71145;BME280;58812;47.698;17.726;2023-02-22T08:24:56;100413.22;;;7.11;100.00
71145;BME280;58812;47.698;17.726;2023-02-22T08:27:26;100407.88;;;7.22;99.99
71145;BME280;58812;47.698;17.726;2023-02-22T08:29:52;100414.44;;;7.30;99.93
71145;BME280;58812;47.698;17.726;2023-02-22T08:32:18;100412.84;;;7.38;99.48
71145;BME280;58812;47.698;17.726;2023-02-22T08:34:44;100410.78;;;7.53;99.12
71145;BME280;58812;47.698;17.726;2023-02-22T08:37:10;100407.59;;;7.70;98.79
71145;BME280;58812;47.698;17.726;2023-02-22T08:39:36;100415.56;;;7.82;97.85
71145;BME280;58812;47.698;17.726;2023-02-22T08:42:02;100411.38;;;8.00;97.30
71145;BME280;58812;47.698;17.726;2023-02-22T08:44:27;100424.91;;;8.19;97.24
71145;BME280;58812;47.698;17.726;2023-02-22T08:46:53;100405.97;;;8.22;96.16
71145;BME280;58812;47.698;17.726;2023-02-22T08:49:19;100407.97;;;8.30;95.24
71145;BME280;58812;47.698;17.726;2023-02-22T08:51:45;100401.84;;;8.50;93.24
71145;BME280;58812;47.698;17.726;2023-02-22T08:54:11;100408.81;;;8.83;93.00
71145;BME280;58812;47.698;17.726;2023-02-22T08:56:36;100403.81;;;8.90;90.58
71145;BME280;58812;47.698;17.726;2023-02-22T08:59:02;100405.09;;;9.26;89.73
71145;BME280;58812;47.698;17.726;2023-02-22T09:01:27;100406.28;;;9.43;87.90
71145;BME280;58812;47.698;17.726;2023-02-22T09:03:53;100399.03;;;9.74;86.23
71145;BME280;58812;47.698;17.726;2023-02-22T09:06:21;100397.59;;;9.70;85.29
71145;BME280;58812;47.698;17.726;2023-02-22T09:08:47;100399.75;;;9.86;85.75
71145;BME280;58812;47.698;17.726;2023-02-22T09:11:12;100395.34;;;9.56;84.35
71145;BME280;58812;47.698;17.726;2023-02-22T09:13:38;100406.94;;;9.85;83.61
71145;BME280;58812;47.698;17.726;2023-02-22T09:16:04;100406.37;;;9.92;84.27
71145;BME280;58812;47.698;17.726;2023-02-22T09:18:29;100404.97;;;10.07;83.20
71145;BME280;58812;47.698;17.726;2023-02-22T09:20:54;100411.19;;;10.17;81.93
71145;BME280;58812;47.698;17.726;2023-02-22T09:23:20;100400.31;;;10.18;82.29
71145;BME280;58812;47.698;17.726;2023-02-22T09:25:47;100401.91;;;10.21;79.92
71145;BME280;58812;47.698;17.726;2023-02-22T09:28:13;100404.59;;;10.40;79.96
71145;BME280;58812;47.698;17.726;2023-02-22T09:30:38;100410.09;;;11.05;78.16
71145;BME280;58812;47.698;17.726;2023-02-22T09:35:34;100412.22;;;11.02;76.89
71145;BME280;58812;47.698;17.726;2023-02-22T09:38:01;100413.59;;;11.15;76.81
71145;BME280;58812;47.698;17.726;2023-02-22T09:40:32;100407.53;;;11.50;75.76
71145;BME280;58812;47.698;17.726;2023-02-22T09:49:02;100406.16;;;11.37;75.01
71145;BME280;58812;47.698;17.726;2023-02-22T09:51:46;100413.75;;;12.14;73.46
71145;BME280;58812;47.698;17.726;2023-02-22T09:54:28;100409.09;;;12.78;70.40
71145;BME280;58812;47.698;17.726;2023-02-22T09:57:02;100402.38;;;12.56;69.87
71145;BME280;58812;47.698;17.726;2023-02-22T10:00:02;100402.97;;;13.20;68.05
71145;BME280;58812;47.698;17.726;2023-02-22T10:08:00;100404.00;;;14.11;62.74
71145;BME280;58812;47.698;17.726;2023-02-22T10:10:35;100392.31;;;13.78;63.71
71145;BME280;58812;47.698;17.726;2023-02-22T10:13:49;100396.22;;;14.08;63.26
71145;BME280;58812;47.698;17.726;2023-02-22T10:19:02;100390.13;;;13.40;65.20
71145;BME280;58812;47.698;17.726;2023-02-22T10:21:54;100384.41;;;13.08;65.22
71145;BME280;58812;47.698;17.726;2023-02-22T10:26:57;100383.37;;;13.27;66.07
71145;BME280;58812;47.698;17.726;2023-02-22T10:32:05;100368.50;;;13.15;66.83
71145;BME280;58812;47.698;17.726;2023-02-22T10:34:49;100374.53;;;12.83;67.32
71145;BME280;58812;47.698;17.726;2023-02-22T10:39:52;100372.63;;;13.01;67.59
71145;BME280;58812;47.698;17.726;2023-02-22T10:42:24;100363.34;;;13.22;66.87
71145;BME280;58812;47.698;17.726;2023-02-22T10:44:50;100365.56;;;13.26;67.24
71145;BME280;58812;47.698;17.726;2023-02-22T10:47:16;100363.25;;;13.05;68.77
71145;BME280;58812;47.698;17.726;2023-02-22T10:49:47;100361.44;;;13.40;67.31
71145;BME280;58812;47.698;17.726;2023-02-22T10:52:33;100355.22;;;13.14;68.14
71145;BME280;58812;47.698;17.726;2023-02-22T10:55:00;100355.47;;;12.94;69.60
71145;BME280;58812;47.698;17.726;2023-02-22T10:57:31;100358.91;;;13.13;68.82
71145;BME280;58812;47.698;17.726;2023-02-22T11:02:51;100341.25;;;13.44;65.24
71145;BME280;58812;47.698;17.726;2023-02-22T11:05:33;100347.12;;;14.31;63.45
71145;BME280;58812;47.698;17.726;2023-02-22T11:08:22;100347.72;;;13.68;64.67
71145;BME280;58812;47.698;17.726;2023-02-22T11:10:50;100349.44;;;13.77;62.92
71145;BME280;58812;47.698;17.726;2023-02-22T11:13:38;100348.06;;;13.81;62.64
71145;BME280;58812;47.698;17.726;2023-02-22T11:16:17;100341.66;;;14.88;59.60
71145;BME280;58812;47.698;17.726;2023-02-22T11:18:44;100344.97;;;15.85;56.28
71145;BME280;58812;47.698;17.726;2023-02-22T11:21:11;100335.87;;;17.14;52.81
71145;BME280;58812;47.698;17.726;2023-02-22T11:23:41;100344.97;;;17.57;50.93
71145;BME280;58812;47.698;17.726;2023-02-22T11:26:11;100334.91;;;15.79;55.06
71145;BME280;58812;47.698;17.726;2023-02-22T11:28:47;100332.06;;;15.33;56.07
71145;BME280;58812;47.698;17.726;2023-02-22T11:31:26;100325.66;;;15.34;55.62
71145;BME280;58812;47.698;17.726;2023-02-22T11:36:40;100321.53;;;14.43;58.84
71145;BME280;58812;47.698;17.726;2023-02-22T11:39:26;100323.22;;;14.60;59.24
71145;BME280;58812;47.698;17.726;2023-02-22T11:41:54;100322.00;;;14.79;58.67
71145;BME280;58812;47.698;17.726;2023-02-22T11:46:52;100310.53;;;13.55;63.86
71145;BME280;58812;47.698;17.726;2023-02-22T11:49:22;100308.63;;;13.31;64.70
71145;BME280;58812;47.698;17.726;2023-02-22T11:54:53;100300.25;;;13.42;64.35
71145;BME280;58812;47.698;17.726;2023-02-22T11:57:43;100303.22;;;13.23;64.16
71145;BME280;58812;47.698;17.726;2023-02-22T12:05:48;100299.69;;;12.88;64.75
71145;BME280;58812;47.698;17.726;2023-02-22T12:16:18;100288.37;;;13.19;64.04
71145;BME280;58812;47.698;17.726;2023-02-22T12:21:19;100282.38;;;13.25;63.06
71145;BME280;58812;47.698;17.726;2023-02-22T12:26:19;100280.28;;;13.53;62.87
71145;BME280;58812;47.698;17.726;2023-02-22T12:28:58;100280.31;;;13.77;61.28
71145;BME280;58812;47.698;17.726;2023-02-22T12:31:31;100285.50;;;13.79;61.64
71145;BME280;58812;47.698;17.726;2023-02-22T12:36:38;100283.81;;;14.10;60.65
71145;BME280;58812;47.698;17.726;2023-02-22T12:42:17;100276.28;;;13.89;61.63
71145;BME280;58812;47.698;17.726;2023-02-22T12:44:49;100280.78;;;13.81;61.92
71145;BME280;58812;47.698;17.726;2023-02-22T12:47:20;100271.88;;;13.56;62.19
71145;BME280;58812;47.698;17.726;2023-02-22T12:49:51;100271.50;;;13.34;62.86
71145;BME280;58812;47.698;17.726;2023-02-22T12:52:39;100269.03;;;13.15;63.71
71145;BME280;58812;47.698;17.726;2023-02-22T12:58:00;100266.44;;;12.97;64.20
71145;BME280;58812;47.698;17.726;2023-02-22T13:00:48;100261.31;;;13.20;63.19
71145;BME280;58812;47.698;17.726;2023-02-22T13:03:41;100264.78;;;12.96;64.04
71145;BME280;58812;47.698;17.726;2023-02-22T13:17:01;100257.87;;;13.36;61.92
71145;BME280;58812;47.698;17.726;2023-02-22T13:19:33;100244.34;;;13.20;62.04
71145;BME280;58812;47.698;17.726;2023-02-22T13:30:39;100243.91;;;12.82;63.76
71145;BME280;58812;47.698;17.726;2023-02-22T13:33:31;100249.38;;;13.15;62.69
71145;BME280;58812;47.698;17.726;2023-02-22T13:42:33;100236.69;;;13.33;61.85
71145;BME280;58812;47.698;17.726;2023-02-22T13:50:57;100239.12;;;13.10;62.51
71145;BME280;58812;47.698;17.726;2023-02-22T13:53:34;100237.53;;;12.91;62.98
71145;BME280;58812;47.698;17.726;2023-02-22T13:56:01;100238.00;;;13.21;61.67
71145;BME280;58812;47.698;17.726;2023-02-22T13:58:26;100235.34;;;13.29;62.01
71145;BME280;58812;47.698;17.726;2023-02-22T14:00:54;100239.63;;;13.05;62.84
71145;BME280;58812;47.698;17.726;2023-02-22T14:05:51;100227.50;;;12.93;63.39
71145;BME280;58812;47.698;17.726;2023-02-22T14:13:10;100223.47;;;12.97;62.86
71145;BME280;58812;47.698;17.726;2023-02-22T14:15:35;100221.66;;;13.06;63.09
71145;BME280;58812;47.698;17.726;2023-02-22T14:18:21;100222.44;;;12.98;63.45
71145;BME280;58812;47.698;17.726;2023-02-22T14:21:06;100216.28;;;13.06;63.30
71145;BME280;58812;47.698;17.726;2023-02-22T14:23:45;100215.66;;;12.78;64.21
71145;BME280;58812;47.698;17.726;2023-02-22T14:29:01;100211.78;;;12.72;66.21
71145;BME280;58812;47.698;17.726;2023-02-22T14:36:47;100210.50;;;12.84;65.78
71145;BME280;58812;47.698;17.726;2023-02-22T14:40:05;100200.50;;;12.69;65.98
71145;BME280;58812;47.698;17.726;2023-02-22T14:42:12;100201.94;;;12.81;65.70
71145;BME280;58812;47.698;17.726;2023-02-22T14:52:49;100203.91;;;12.71;66.31
71145;BME280;58812;47.698;17.726;2023-02-22T14:55:23;100202.59;;;12.75;65.68
71145;BME280;58812;47.698;17.726;2023-02-22T14:58:09;100191.31;;;12.79;66.49
71145;BME280;58812;47.698;17.726;2023-02-22T15:00:45;100202.91;;;12.80;66.29
71145;BME280;58812;47.698;17.726;2023-02-22T15:03:31;100209.56;;;12.68;67.65
71145;BME280;58812;47.698;17.726;2023-02-22T15:08:29;100192.44;;;12.61;68.41
71145;BME280;58812;47.698;17.726;2023-02-22T15:10:56;100198.34;;;12.64;68.30
71145;BME280;58812;47.698;17.726;2023-02-22T15:13:25;100192.59;;;12.59;68.02
71145;BME280;58812;47.698;17.726;2023-02-22T15:15:57;100192.78;;;12.57;68.39
71145;BME280;58812;47.698;17.726;2023-02-22T15:20:56;100193.41;;;12.51;69.05
71145;BME280;58812;47.698;17.726;2023-02-22T15:23:30;100193.69;;;12.40;69.92
71145;BME280;58812;47.698;17.726;2023-02-22T15:26:03;100194.28;;;12.26;71.57
71145;BME280;58812;47.698;17.726;2023-02-22T15:28:29;100192.22;;;12.20;71.52